Latest Weather Observations for Cape Moreton

IDQ60901

Issued at 9:21 am EST Wednesday 22 February 2017 (issued every 10 minutes, with the page automatically refreshed every 10 minutes)

About weather observations | Map of Brisbane area stations | Latest observations for Brisbane area | Other Formats
Station Details ID: 040043 Name: CAPE MORETON LIGHTHOUSE Lat: -27.03 Lon: 153.47 Height: 99.9 m
Data from the previous 72 hours. | See also: Recent months at Cape Moreton
Date/Time
EST
Temp
°C
App
Temp
°C
Dew
Point
°C
Rel
Hum
%
Delta-T
°C
Wind Press
QNH
hPa
Press
MSL
hPa
Rain since
9am
mm
Dir  Spd
km/h
Gust
km/h
Spd
kts
Gust
kts
22/09:00am 25.7 20.3 19.1 67 4.2 SE 46 54 25 29 1018.9 1018.4 0.0
22/08:30am 27.0 22.6 19.4 63 4.9 SE 41 52 22 28 1018.8 1018.3 0.0
22/08:00am 26.1 21.5 18.8 64 4.7 SE 41 46 22 25 1018.8 1018.3 0.0
22/07:30am 25.8 22.2 18.5 64 4.7 SE 35 43 19 23 1018.6 1018.1 0.0
22/07:00am 25.6 21.7 18.8 66 4.3 ESE 37 44 20 24 1018.3 1017.8 0.0
22/06:30am 25.1 21.2 18.8 68 4.0 ESE 37 44 20 24 1018.1 1017.6 0.0
22/06:00am 24.8 21.2 19.4 72 3.5 ESE 37 43 20 23 1017.9 1017.4 0.0
22/05:30am 24.8 21.5 19.2 71 3.6 ESE 35 43 19 23 1017.6 1017.1 0.0
22/05:00am 24.6 21.1 18.8 70 3.7 SE 35 43 19 23 1017.5 1017.0 0.0
22/04:30am 24.8 21.8 19.8 74 3.2 ESE 35 44 19 24 1017.1 1016.6 0.0
22/04:00am 24.7 21.5 19.5 73 3.4 ESE 35 41 19 22 1016.9 1016.4 0.0
22/03:30am 24.7 22.6 19.8 74 3.2 SE 30 37 16 20 1017.2 1016.7 0.0
22/03:00am 24.6 21.9 19.2 72 3.5 SE 32 39 17 21 1017.0 1016.5 0.0
22/02:30am 24.5 21.8 19.3 73 3.3 ESE 32 39 17 21 1017.1 1016.6 0.0
22/02:00am 24.6 21.8 19.4 73 3.3 ESE 33 41 18 22 1017.1 1016.6 0.0
22/01:30am 24.5 21.1 18.9 71 3.6 ESE 35 44 19 24 1017.1 1016.6 0.0
22/01:00am 24.5 20.3 18.9 71 3.6 ESE 39 46 21 25 1017.1 1016.6 0.0
22/12:30am 24.6 19.8 18.3 68 4.0 ESE 41 48 22 26 1017.3 1016.8 0.0
22/12:00am 24.6 19.6 18.8 70 3.7 ESE 43 52 23 28 1017.2 1016.7 0.0
 
Date/Time
EST
Temp
°C
App
Temp
°C
Dew
Point
°C
Rel
Hum
%
Delta-T
°C
Wind Press
QNH
hPa
Press
MSL
hPa
Rain since
9am
mm
Dir  Spd
km/h
Gust
km/h
Spd
kts
Gust
kts
21/11:30pm 24.7 18.9 18.4 68 4.0 ESE 46 52 25 28 1017.6 1017.1 0.0
21/11:00pm 24.8 19.7 19.0 70 3.7 ESE 44 54 24 29 1017.6 1017.1 0.0
21/10:30pm 24.9 20.0 19.5 72 3.5 ESE 44 54 24 29 1018.1 1017.6 0.0
21/10:00pm 24.9 19.3 18.8 69 3.9 ESE 46 52 25 28 1018.1 1017.6 0.0
21/09:30pm 25.1 20.1 19.2 70 3.8 ESE 44 54 24 29 1018.4 1017.9 0.0
21/09:00pm 25.0 19.8 18.7 68 4.0 ESE 44 54 24 29 1018.3 1017.8 0.0
21/08:30pm 25.1 20.2 19.0 69 3.9 ESE 43 52 23 28 1018.2 1017.7 0.0
21/08:00pm 25.1 19.8 18.5 67 4.2 ESE 44 52 24 28 1017.6 1017.1 0.0
21/07:30pm 25.2 20.0 18.4 66 4.3 ESE 43 54 23 29 1017.5 1017.0 0.0
21/07:00pm 25.3 20.0 18.5 66 4.3 ESE 44 54 24 29 1017.4 1016.9 0.0
21/06:30pm 25.5 20.3 18.9 67 4.2 ESE 44 52 24 28 1017.1 1016.6 0.0
21/06:00pm 25.6 20.5 19.0 67 4.2 ESE 44 52 24 28 1016.7 1016.2 0.0
21/05:30pm 26.1 20.6 18.0 61 5.1 ESE 44 52 24 28 1016.4 1015.9 0.0
21/05:00pm 26.3 22.1 20.6 71 3.8 ESE 43 52 23 28 1016.0 1015.5 0.0
21/04:30pm 26.8 23.2 20.9 70 3.9 ESE 41 50 22 27 1015.9 1015.4 0.0
21/04:00pm 26.8 22.6 20.6 69 4.1 ESE 43 50 23 27 1015.6 1015.1 0.0
21/03:30pm 26.8 23.2 20.2 67 4.3 ESE 39 46 21 25 1015.5 1015.0 0.0
21/03:00pm 27.5 24.1 20.6 66 4.6 ESE 39 44 21 24 1015.8 1015.3 0.0
21/02:30pm 27.7 24.2 20.3 64 4.9 ESE 39 46 21 25 1015.8 1015.3 0.0
21/02:00pm 28.1 25.1 19.9 61 5.4 ESE 35 43 19 23 1016.0 1015.5 0.0
21/01:30pm 27.8 24.4 19.8 61 5.2 SE 37 44 20 24 1016.0 1015.5 0.0
21/01:00pm 28.2 24.6 19.4 59 5.7 SE 37 44 20 24 1016.1 1015.6 0.0
21/12:30pm 28.2 24.6 19.4 59 5.7 SE 37 43 20 23 1016.4 1015.9 0.0
21/12:00pm 28.4 25.5 19.3 57 5.9 SE 33 41 18 22 1016.6 1016.1 0.0
21/11:30am 29.4 27.6 21.1 61 5.6 SE 32 39 17 21 1016.8 1016.3 0.0
21/11:00am 28.8 27.1 20.5 61 5.5 SE 30 35 16 19 1017.0 1016.5 0.0
21/10:30am 28.8 27.4 20.5 61 5.5 SE 28 32 15 17 1017.3 1016.8 0.0
21/10:00am 28.9 27.7 20.1 59 5.8 SE 26 32 14 17 1017.3 1016.8 0.0
21/09:30am 28.7 28.3 21.0 63 5.1 SE 24 28 13 15 1017.5 1017.0 0.0
21/09:00am 28.1 27.3 20.9 65 4.8 SE 26 30 14 16 1017.4 1016.9 0.0
21/08:30am 27.9 28.3 21.7 69 4.2 SE 22 28 12 15 1017.2 1016.7 0.0
21/08:00am 27.7 27.5 20.5 65 4.7 SE 22 28 12 15 1016.9 1016.4 0.0
21/07:30am 27.3 26.9 20.9 68 4.2 SE 24 28 13 15 1016.6 1016.1 0.0
21/07:00am 26.8 26.5 21.1 71 3.8 SE 24 28 13 15 1016.3 1015.8 0.0
21/06:30am 26.0 25.9 20.8 73 3.4 ESE 22 26 12 14 1016.0 1015.5 0.0
21/06:00am 24.8 24.3 20.7 78 2.7 ESE 24 28 13 15 1015.3 1014.8 0.0
21/05:30am 24.7 24.2 20.8 79 2.6 ESE 24 28 13 15 1014.9 1014.3 0.0
21/05:00am 24.7 24.3 21.0 80 2.4 ESE 24 30 13 16 1014.4 1013.8 0.0
21/04:30am 24.7 24.0 21.0 80 2.4 ESE 26 33 14 18 1014.1 1013.5 0.0
21/04:00am 24.8 24.3 21.5 82 2.2 ESE 26 32 14 17 1013.8 1013.2 0.0
21/03:30am 24.9 25.0 21.8 83 2.1 ESE 24 30 13 16 1013.6 1013.0 0.0
21/03:00am 24.8 25.6 21.7 83 2.1 ESE 20 24 11 13 1013.7 1013.1 0.0
21/02:30am 24.7 25.3 21.4 82 2.2 ESE 20 26 11 14 1013.6 1013.0 0.0
21/02:00am 24.7 25.4 21.6 83 2.1 ESE 20 24 11 13 1013.8 1013.2 0.0
21/01:30am 24.6 25.2 21.3 82 2.2 ESE 20 24 11 13 1014.0 1013.4 0.0
21/01:00am 24.8 25.2 21.7 83 2.1 ESE 22 30 12 16 1014.1 1013.5 0.0
21/12:30am 24.8 25.6 21.7 83 2.1 ESE 20 26 11 14 1014.6 1014.0 0.0
21/12:00am 25.0 25.5 21.9 83 2.1 ESE 22 28 12 15 1014.7 1014.1 0.0
 
Date/Time
EST
Temp
°C
App
Temp
°C
Dew
Point
°C
Rel
Hum
%
Delta-T
°C
Wind Press
QNH
hPa
Press
MSL
hPa
Rain since
9am
mm
Dir  Spd
km/h
Gust
km/h
Spd
kts
Gust
kts
20/11:30pm 24.9 25.2 22.2 85 1.8 ESE 24 28 13 15 1014.6 1014.0 0.0
20/11:00pm 25.0 25.3 22.3 85 1.8 ESE 24 30 13 16 1014.6 1014.0 0.0
20/10:30pm 25.0 24.9 22.3 85 1.8 ESE 26 32 14 17 1014.6 1014.0 0.0
20/10:00pm 25.1 25.0 22.2 84 1.9 ESE 26 30 14 16 1014.7 1014.1 0.0
20/09:30pm 25.0 24.8 22.1 84 1.9 ESE 26 32 14 17 1014.4 1013.8 0.0
20/09:00pm 25.0 24.5 22.1 84 1.9 ESE 28 35 15 19 1014.1 1013.5 0.0
20/08:30pm 25.1 24.2 22.2 84 1.9 ESE 30 35 16 19 1013.5 1012.9 0.0
20/08:00pm 25.0 24.2 21.7 82 2.2 ESE 28 33 15 18 1013.2 1012.6 0.0
20/07:30pm 25.0 23.8 21.5 81 2.3 ESE 30 37 16 20 1012.5 1012.0 0.0
20/07:00pm 25.2 23.8 21.9 82 2.2 ESE 32 37 17 20 1012.1 1011.6 0.0
20/06:30pm 25.3 24.0 21.4 79 2.6 ESE 30 35 16 19 1011.7 1011.2 0.0
20/06:00pm 25.6 23.9 20.6 74 3.3 ESE 30 35 16 19 1011.3 1010.8 0.0
20/05:30pm 26.4 25.5 21.4 74 3.3 ESE 28 33 15 18 1010.8 1010.3 0.0
20/05:00pm 26.6 25.5 21.8 75 3.2 ESE 30 33 16 18 1010.3 1009.8 0.0
20/04:30pm 26.4 24.6 21.2 73 3.5 ESE 32 35 17 19 1010.0 1009.5 0.0
20/04:00pm 26.7 25.5 21.5 73 3.5 SE 30 37 16 20 1010.0 1009.5 0.0
20/03:30pm 27.1 26.2 21.4 71 3.8 SE 28 33 15 18 1009.9 1009.4 0.0
20/03:00pm 27.3 27.3 20.9 68 4.3 SE 22 28 12 15 1009.9 1009.4 0.0
20/02:30pm 27.5 26.7 20.1 64 4.9 SE 24 30 13 16 1009.9 1009.4 0.0
20/02:00pm 27.7 26.8 19.8 62 5.2 SE 24 28 13 15 1010.0 1009.5 0.0
20/01:30pm 27.9 26.4 20.2 63 5.1 SE 28 35 15 19 1010.1 1009.6 0.0
20/01:00pm 28.3 27.5 20.1 61 5.4 SE 24 30 13 16 1010.3 1009.8 0.0
20/12:30pm 28.8 28.1 19.4 56 6.1 SE 22 30 12 16 1010.8 1010.3 0.0
20/12:00pm 28.5 28.3 19.7 59 5.8 SE 20 26 11 14 1011.0 1010.5 0.0
20/11:30am 28.9 29.1 20.1 59 5.8 SE 19 22 10 12 1011.3 1010.8 0.0
20/11:00am 28.9 29.3 19.8 58 6.0 SE 17 20 9 11 1011.5 1011.0 0.0
20/10:30am 28.4 29.2 19.9 60 5.6 SE 15 17 8 9 1011.7 1011.2 0.0
20/10:00am 27.8 29.2 20.4 64 4.9 ESE 13 17 7 9 1011.5 1011.0 0.0
20/09:30am 27.2 29.2 20.0 64 4.7 SW 9 15 5 8 1011.7 1011.2 0.0
20/09:00am 26.1 27.4 19.2 65 4.5 SW 11 17 6 9 1011.9 1011.4 2.0
20/08:30am 25.5 27.5 20.7 75 3.2 S 11 19 6 10 1011.9 1011.4 1.8
20/08:00am 24.5 27.2 21.4 83 2.1 S 9 15 5 8 1011.7 1011.2 1.8
20/07:30am 24.7 27.6 21.8 84 1.9 S 9 15 5 8 1011.5 1011.0 1.8
20/07:00am 23.4 25.5 20.9 86 1.6 SW 11 15 6 8 1011.1 1010.6 1.8
20/06:30am 23.3 24.9 20.8 86 1.6 WSW 13 15 7 8 1010.7 1010.2 1.8
20/06:00am 23.2 25.6 21.5 90 1.1 SSW 11 13 6 7 1009.9 1009.4 1.8
20/05:30am 23.1 25.1 21.5 91 1.1 SW 13 17 7 9 1009.1 1008.6 1.8
20/05:00am 24.0 25.6 21.5 86 1.7 N 15 20 8 11 1008.0 1007.5 1.8
20/04:30am 23.7 25.7 21.6 88 1.4 NNE 13 17 7 9 1007.9 1007.4 1.8
20/04:00am 23.4 25.4 21.5 89 1.3 NE 13 17 7 9 1007.5 1007.0 1.8
20/03:30am 23.0 25.8 20.9 88 1.4 SW 7 9 4 5 1007.8 1007.3 1.8
20/03:00am 22.9 25.3 20.8 88 1.4 SW 9 11 5 6 1008.1 1007.6 1.8
20/02:30am 23.0 24.2 20.7 87 1.5 WSW 15 19 8 10 1008.5 1008.0 1.8
20/02:00am 23.0 23.9 20.9 88 1.4 WSW 17 20 9 11 1008.5 1008.0 1.8
20/01:30am 23.0 23.6 21.1 89 1.2 SW 19 30 10 16 1008.5 1008.0 1.8
20/01:00am 23.3 24.2 22.6 96 0.5 SW 22 30 12 16 1008.7 1008.2 1.8
20/12:30am 23.3 24.6 22.3 94 0.7 WSW 19 22 10 12 1009.0 1008.5 1.8
20/12:00am 23.5 25.1 23.3 99 0.1 SW 20 26 11 14 1008.7 1008.2 1.8
 
Date/Time
EST
Temp
°C
App
Temp
°C
Dew
Point
°C
Rel
Hum
%
Delta-T
°C
Wind Press
QNH
hPa
Press
MSL
hPa
Rain since
9am
mm
Dir  Spd
km/h
Gust
km/h
Spd
kts
Gust
kts
19/11:30pm 23.4 24.7 23.4 100 0.0 SW 22 28 12 15 1009.1 1008.6 1.8
19/11:00pm 24.0 26.0 24.0 100 0.0 WSW 20 28 11 15 1009.4 1008.9 1.8
19/10:30pm 24.4 28.2 24.1 98 0.2 WNW 11 17 6 9 1009.2 1008.7 1.8
19/10:00pm 24.4 27.9 24.2 99 0.1 WNW 13 15 7 8 1009.2 1008.7 1.8
19/09:30pm 24.1 27.8 23.9 99 0.1 W 11 15 6 8 1009.3 1008.8 1.8
19/09:00pm 23.8 26.3 23.8 100 0.0 W 17 19 9 10 1009.3 1008.8 1.8
19/08:30pm 24.1 28.2 23.9 99 0.1 WNW 9 13 5 7 1009.0 1008.5 1.8
19/08:00pm 24.2 27.9 23.9 98 0.2 NW 11 15 6 8 1008.8 1008.3 1.0
19/07:30pm 24.6 27.4 24.3 98 0.2 W 17 20 9 11 1008.7 1008.2 0.6
19/07:00pm 25.3 27.2 23.4 89 1.3 N 19 24 10 13 1008.3 1007.8 0.2
19/06:30pm 26.1 28.1 23.0 83 2.1 NNW 17 24 9 13 1008.2 1007.7 0.0
19/06:00pm 26.3 27.9 22.8 81 2.4 N 19 24 10 13 1007.9 1007.4 0.0
19/05:30pm 26.5 27.0 22.6 79 2.6 N 24 28 13 15 1007.0 1006.5 0.0
19/05:00pm 26.6 27.3 21.6 74 3.4 NNE 20 30 11 16 1006.4 1005.9 0.0
19/04:30pm 26.7 26.7 21.7 74 3.3 NNE 24 32 13 17 1006.1 1005.5 0.0
19/04:00pm 27.0 26.9 21.5 72 3.7 NE 24 32 13 17 1006.2 1005.6 0.0
19/03:30pm 26.9 26.3 21.9 74 3.4 NE 28 33 15 18 1006.1 1005.5 0.0
19/03:00pm 27.7 27.7 22.4 73 3.6 NNE 26 32 14 17 1006.8 1006.3 0.0
19/02:30pm 28.2 28.9 22.9 73 3.6 NNE 24 32 13 17 1006.8 1006.3 0.0
19/02:00pm 27.4 28.3 21.9 72 3.7 NNE 20 28 11 15 1007.1 1006.6 0.0
19/01:30pm 27.5 27.6 21.1 68 4.3 N 22 30 12 16 1007.4 1006.9 0.0
19/01:00pm 27.6 28.1 21.9 71 3.8 N 22 30 12 16 1007.7 1007.2 0.0
19/12:30pm 28.8 29.7 21.6 65 4.8 NNW 19 24 10 13 1007.8 1007.3 0.0
19/12:00pm 26.9 27.0 20.3 67 4.3 NW 20 26 11 14 1008.0 1007.5 0.0
19/11:30am 27.4 27.2 20.5 66 4.6 NW 22 28 12 15 1008.2 1007.7 0.0
19/11:00am 27.3 28.1 20.6 67 4.4 NNW 17 28 9 15 1008.2 1007.7 0.0
19/10:30am 28.4 29.2 21.7 67 4.5 NNW 20 28 11 15 1008.3 1007.8 0.0
19/10:00am 27.6 28.0 20.9 67 4.5 NNW 20 30 11 16 1008.6 1008.1 0.0
19/09:30am 27.3 27.8 21.1 69 4.1 NNW 20 30 11 16 1008.8 1008.3 0.0

Latest Capital City Observations: Canberra | Sydney | Melbourne | Brisbane | Adelaide | Perth | Hobart | Darwin

Other Formats:

Comma delimited format used in spreadsheet applications
http://www.bom.gov.au/fwo/IDQ60901/IDQ60901.94594.axf

JavaScript Object Notation format (JSON) in row-major order
http://www.bom.gov.au/fwo/IDQ60901/IDQ60901.94594.json